createdAt,value
2019-02-17T00:01:12.892Z,102097.00
2019-02-17T00:04:16.926Z,102102.13
2019-02-17T00:07:20.986Z,102097.00
2019-02-17T00:10:25.020Z,102098.81
2019-02-17T00:13:29.077Z,102105.23
2019-02-17T00:16:33.134Z,102106.59
2019-02-17T00:19:37.168Z,102101.02
2019-02-17T00:22:41.229Z,102092.84
2019-02-17T00:25:45.269Z,102094.14
2019-02-17T00:28:58.893Z,102092.91
2019-02-17T00:31:55.098Z,102097.58
2019-02-17T00:34:59.133Z,102098.94
2019-02-17T00:38:03.194Z,102100.38
2019-02-17T00:41:07.225Z,102102.08
2019-02-17T00:44:11.282Z,102104.66
2019-02-17T00:47:15.336Z,102101.59
2019-02-17T00:50:19.381Z,102100.38
2019-02-17T00:53:23.428Z,102107.71
2019-02-17T00:56:27.466Z,102110.30
2019-02-17T00:59:31.532Z,102113.74
2019-02-17T01:02:35.570Z,102118.14
2019-02-17T01:05:39.634Z,102114.71
2019-02-17T01:08:43.693Z,102114.31
2019-02-17T01:11:47.731Z,102113.05
2019-02-17T01:14:51.791Z,102115.19
2019-02-17T01:17:55.824Z,102113.05
2019-02-17T01:20:59.886Z,102111.36
2019-02-17T01:24:03.940Z,102109.61
2019-02-17T01:27:07.977Z,102103.58
2019-02-17T01:30:15.177Z,102108.77
2019-02-17T01:33:19.200Z,102107.92
2019-02-17T01:36:23.259Z,102103.73
2019-02-17T01:39:27.292Z,102101.89
2019-02-17T01:42:31.349Z,102098.45
2019-02-17T01:45:35.418Z,102091.13
2019-02-17T01:48:39.455Z,102097.31
2019-02-17T01:51:43.518Z,102089.47
2019-02-17T01:54:47.550Z,102084.80
2019-02-17T01:57:51.610Z,102080.91
2019-02-17T02:00:55.749Z,102087.39
2019-02-17T02:03:59.794Z,102059.38
2019-02-17T02:07:03.846Z,102077.02
2019-02-17T02:10:09.424Z,102078.77
2019-02-17T02:13:13.550Z,102076.63
2019-02-17T02:16:17.586Z,102073.70
2019-02-17T02:19:21.640Z,102078.44
2019-02-17T02:22:25.712Z,102068.18
2019-02-17T02:25:29.744Z,102066.83
2019-02-17T02:28:33.801Z,102070.32
2019-02-17T02:31:37.841Z,102072.46
2019-02-17T02:34:41.898Z,102066.43
2019-02-17T02:37:45.964Z,102069.48
2019-02-17T02:40:49.992Z,102064.74
2019-02-17T02:43:54.052Z,102067.82
2019-02-17T02:46:58.084Z,102058.27
2019-02-17T02:50:02.158Z,102059.20
2019-02-17T02:53:06.181Z,102058.86
2019-02-17T02:56:10.239Z,102062.24
2019-02-17T02:59:14.296Z,102061.06
2019-02-17T03:02:18.334Z,102059.25
2019-02-17T03:05:22.389Z,102061.45
2019-02-17T03:08:26.426Z,102065.41
2019-02-17T03:11:30.481Z,102070.87
2019-02-17T03:14:34.542Z,102075.33
2019-02-17T03:17:38.579Z,102071.38
2019-02-17T03:20:42.636Z,102064.69
2019-02-17T03:23:46.672Z,102060.28
2019-02-17T03:26:50.734Z,102056.78
2019-02-17T03:30:04.397Z,102064.11
2019-02-17T03:33:00.614Z,102062.09
2019-02-17T03:36:04.644Z,102058.98
2019-02-17T03:39:08.682Z,102056.00
2019-02-17T03:42:12.741Z,102061.58
2019-02-17T03:45:16.779Z,102063.33
2019-02-17T03:48:20.838Z,102062.48
2019-02-17T03:51:24.896Z,102063.27
2019-02-17T03:54:28.939Z,102061.97
2019-02-17T03:57:32.989Z,102070.80
2019-02-17T04:00:37.026Z,102070.80
2019-02-17T04:03:41.075Z,102073.70
2019-02-17T04:06:45.140Z,102069.02
2019-02-17T04:09:49.172Z,102073.40
2019-02-17T04:12:53.228Z,102068.57
2019-02-17T04:15:57.267Z,102071.70
2019-02-17T04:19:01.322Z,102075.20
2019-02-17T04:22:05.429Z,102070.86
2019-02-17T04:25:09.460Z,102071.31
2019-02-17T04:28:13.516Z,102071.89
2019-02-17T04:31:17.552Z,102070.92
2019-02-17T04:34:21.613Z,102070.92
2019-02-17T04:37:25.648Z,102072.67
2019-02-17T04:40:29.710Z,102070.47
2019-02-17T04:43:33.764Z,102067.09
2019-02-17T04:46:37.807Z,102069.69
2019-02-17T04:49:41.867Z,102067.16
2019-02-17T04:52:45.905Z,102064.50
2019-02-17T04:55:49.962Z,102058.98
2019-02-17T04:58:54.034Z,102059.77
2019-02-17T05:01:58.072Z,102060.67
2019-02-17T05:05:02.160Z,102052.95
2019-02-17T05:08:06.167Z,102049.40
2019-02-17T05:11:10.685Z,102056.00
2019-02-17T05:14:14.726Z,102051.60
2019-02-17T05:17:18.780Z,102047.32
2019-02-17T05:20:22.838Z,102046.93
2019-02-17T05:23:26.878Z,102047.86
2019-02-17T05:26:30.936Z,102042.53
2019-02-17T05:29:34.973Z,102048.62
2019-02-17T05:32:39.033Z,102048.11
2019-02-17T05:35:43.069Z,102057.69
2019-02-17T05:38:47.125Z,102055.09
2019-02-17T05:41:51.187Z,102051.21
2019-02-17T05:44:55.227Z,102053.41
2019-02-17T05:47:59.279Z,102053.41
2019-02-17T05:51:03.316Z,102056.39
2019-02-17T05:54:07.373Z,102055.48
2019-02-17T05:57:11.413Z,102056.55
2019-02-17T06:00:17.344Z,102055.25
2019-02-17T06:03:21.406Z,102052.66
2019-02-17T06:06:25.449Z,102054.41
2019-02-17T06:09:29.510Z,102059.98
2019-02-17T06:12:33.600Z,102060.94
2019-02-17T06:15:37.652Z,102060.04
2019-02-17T06:18:41.709Z,102062.62
2019-02-17T06:21:45.748Z,102064.32
2019-02-17T06:24:49.809Z,102066.91
2019-02-17T06:27:53.846Z,102065.22
2019-02-17T06:30:57.905Z,102063.53
2019-02-17T06:34:01.959Z,102073.96
2019-02-17T06:37:06.007Z,102091.27
2019-02-17T06:40:10.065Z,102094.64
2019-02-17T06:43:14.106Z,102089.91
2019-02-17T06:46:19.800Z,102082.58
2019-02-17T06:49:23.839Z,102091.66
2019-02-17T06:52:27.902Z,102086.08
2019-02-17T06:55:33.579Z,102091.86
2019-02-17T06:58:37.636Z,102096.45
2019-02-17T07:01:41.703Z,102096.38
2019-02-17T07:05:02.419Z,102092.05
2019-02-17T07:08:07.107Z,102095.88
2019-02-17T07:11:11.148Z,102095.88
2019-02-17T07:14:15.176Z,102104.89
2019-02-17T07:17:19.240Z,102104.80
2019-02-17T07:20:23.280Z,102103.05
2019-02-17T07:23:27.336Z,102099.56
2019-02-17T07:26:31.374Z,102096.45
2019-02-17T07:29:35.432Z,102096.06
2019-02-17T07:32:39.488Z,102100.34
2019-02-17T07:35:43.525Z,102109.81
2019-02-17T07:38:47.588Z,102108.97
2019-02-17T07:41:51.625Z,102105.92
2019-02-17T07:44:55.691Z,102114.09
2019-02-17T07:47:59.749Z,102115.39
2019-02-17T07:51:03.785Z,102114.99
2019-02-17T07:54:07.847Z,102115.39
2019-02-17T07:57:11.880Z,102114.99
2019-02-17T08:00:15.942Z,102116.30
2019-02-17T08:03:20.003Z,102120.18
2019-02-17T08:06:24.038Z,102114.16
2019-02-17T08:09:28.092Z,102106.38
2019-02-17T08:12:32.152Z,102115.84
2019-02-17T08:15:36.194Z,102111.89
2019-02-17T08:18:40.252Z,102111.80
2019-02-17T08:21:44.290Z,102112.92
2019-02-17T08:24:48.354Z,102096.34
2019-02-17T08:27:52.422Z,102095.23
2019-02-17T08:30:56.462Z,102098.91
2019-02-17T08:34:00.528Z,102093.96
2019-02-17T08:37:04.566Z,102097.24
2019-02-17T08:40:09.969Z,102101.80
2019-02-17T08:43:14.032Z,102100.68
2019-02-17T08:46:18.065Z,102092.31
2019-02-17T08:49:22.293Z,102090.62
2019-02-17T08:52:26.328Z,102092.41
2019-02-17T08:55:30.388Z,102095.17
2019-02-17T08:58:34.453Z,102100.23
2019-02-17T09:01:40.445Z,102100.41
2019-02-17T09:04:44.240Z,102104.27
2019-02-17T09:07:48.307Z,102111.09
2019-02-17T09:10:52.346Z,102102.30
2019-02-17T09:13:56.410Z,102102.95
2019-02-17T09:17:00.444Z,102096.42
2019-02-17T09:20:07.956Z,102094.67
2019-02-17T09:23:11.701Z,102095.45
2019-02-17T09:26:15.744Z,102099.58
2019-02-17T09:29:19.805Z,102099.86
2019-02-17T09:32:23.844Z,102100.58
2019-02-17T09:35:27.899Z,102101.81
2019-02-17T09:38:31.997Z,102098.73
2019-02-17T09:41:36.033Z,102096.12
2019-02-17T09:44:40.094Z,102101.33
2019-02-17T09:47:44.130Z,102095.67
2019-02-17T09:50:48.188Z,102099.50
2019-02-17T09:53:52.247Z,102102.42
2019-02-17T09:56:56.283Z,102089.83
2019-02-17T10:00:00.344Z,102087.69
2019-02-17T10:03:04.384Z,102088.22
2019-02-17T10:06:08.448Z,102084.94
2019-02-17T10:09:12.508Z,102083.09
2019-02-17T10:12:16.549Z,102081.39
2019-02-17T10:15:20.609Z,102084.94
2019-02-17T10:18:24.670Z,102081.42
2019-02-17T10:21:28.711Z,102080.45
2019-02-17T10:24:32.775Z,102078.14
2019-02-17T10:27:36.813Z,102071.65
2019-02-17T10:30:40.874Z,102074.34
2019-02-17T10:33:44.937Z,102079.53
2019-02-17T10:36:48.977Z,102073.12
2019-02-17T10:39:53.051Z,102075.67
2019-02-17T10:42:57.092Z,102068.66
2019-02-17T10:46:01.154Z,102068.53
2019-02-17T10:49:05.219Z,102066.98
2019-02-17T10:52:09.320Z,102067.37
2019-02-17T10:55:13.858Z,102055.68
2019-02-17T10:58:17.892Z,102061.09
2019-02-17T11:01:21.956Z,102054.92
2019-02-17T11:04:26.030Z,102053.03
2019-02-17T11:07:30.075Z,102056.75
2019-02-17T11:10:34.138Z,102046.22
2019-02-17T11:13:38.204Z,102047.06
2019-02-17T11:16:42.267Z,102047.13
2019-02-17T11:19:46.325Z,102037.72
2019-02-17T11:22:50.373Z,102038.50
2019-02-17T11:25:54.433Z,102025.89
2019-02-17T11:28:58.493Z,102033.30
2019-02-17T11:32:02.533Z,102031.87
2019-02-17T11:35:07.096Z,102024.84
2019-02-17T11:38:11.078Z,102021.41
2019-02-17T11:41:15.144Z,102014.98
2019-02-17T11:44:19.202Z,102011.93
2019-02-17T11:47:23.237Z,102002.52
2019-02-17T11:50:27.303Z,101997.78
2019-02-17T11:53:31.344Z,102000.38
2019-02-17T11:56:35.401Z,101999.02
2019-02-17T11:59:39.462Z,101995.12
2019-02-17T12:02:43.502Z,101985.64
2019-02-17T12:05:47.563Z,101986.94
2019-02-17T12:08:51.620Z,101972.13
2019-02-17T12:11:55.662Z,101975.64
2019-02-17T12:14:59.721Z,101969.14
2019-02-17T12:18:03.756Z,101963.95
2019-02-17T12:21:12.161Z,101968.16
2019-02-17T12:24:17.857Z,101962.52
2019-02-17T12:27:26.216Z,101956.02
2019-02-17T12:30:30.273Z,101951.95
2019-02-17T12:33:34.314Z,101948.61
2019-02-17T12:36:39.308Z,101943.88
2019-02-17T12:39:43.372Z,101934.33
2019-02-17T12:42:47.405Z,101930.33
2019-02-17T12:45:51.462Z,101932.08
2019-02-17T12:48:55.501Z,101925.59
2019-02-17T12:51:59.563Z,101919.48
2019-02-17T12:55:03.619Z,101923.94
2019-02-17T12:58:07.658Z,101923.38
2019-02-17T13:01:13.468Z,101911.16
2019-02-17T13:04:17.453Z,101903.89
2019-02-17T13:07:21.508Z,101902.45
2019-02-17T13:10:25.623Z,101895.05
2019-02-17T13:13:29.663Z,101893.75
2019-02-17T13:16:33.723Z,101886.73
2019-02-17T13:19:37.766Z,101875.48
2019-02-17T13:22:41.817Z,101879.66
2019-02-17T13:25:45.878Z,101879.98
2019-02-17T13:28:49.998Z,101869.66
2019-02-17T13:31:54.053Z,101878.75
2019-02-17T13:34:58.095Z,101873.63
2019-02-17T13:38:02.151Z,101871.73
2019-02-17T13:41:06.208Z,101864.39
2019-02-17T13:44:10.244Z,101858.98
2019-02-17T13:47:14.307Z,101853.02
2019-02-17T13:50:18.369Z,101846.59
2019-02-17T13:53:22.404Z,101844.76
2019-02-17T13:56:26.465Z,101842.62
2019-02-17T13:59:30.504Z,101846.72
2019-02-17T14:02:34.559Z,101849.31
2019-02-17T14:05:38.628Z,101847.11
2019-02-17T14:08:42.661Z,101846.19
2019-02-17T14:11:47.001Z,101838.85
2019-02-17T14:14:51.122Z,101845.80
2019-02-17T14:17:55.185Z,101835.80
2019-02-17T14:20:59.242Z,101838.39
2019-02-17T14:24:03.281Z,101839.69
2019-02-17T14:27:07.337Z,101836.10
2019-02-17T14:30:17.365Z,101836.18
2019-02-17T14:33:21.427Z,101834.50
2019-02-17T14:36:25.485Z,101828.00
2019-02-17T14:39:29.578Z,101823.72
2019-02-17T14:42:33.634Z,101818.52
2019-02-17T14:45:37.689Z,101812.03
2019-02-17T14:48:41.725Z,101806.37
2019-02-17T14:51:45.785Z,101804.08
2019-02-17T14:54:49.822Z,101796.82
2019-02-17T14:57:53.880Z,101794.61
2019-02-17T15:00:57.942Z,101793.30
2019-02-17T15:04:08.277Z,101792.92
2019-02-17T15:07:07.744Z,101795.52
2019-02-17T15:10:14.842Z,101792.85
2019-02-17T15:13:24.487Z,101792.47
2019-02-17T15:16:24.654Z,101789.41
2019-02-17T15:19:29.132Z,101789.41
2019-02-17T15:22:33.188Z,101789.80
2019-02-17T15:25:37.259Z,101790.71
2019-02-17T15:28:50.364Z,101794.23
2019-02-17T15:31:47.078Z,101788.88
2019-02-17T15:34:51.139Z,101788.89
2019-02-17T15:37:55.205Z,101784.95
2019-02-17T15:40:59.270Z,101782.81
2019-02-17T15:44:03.307Z,101775.44
2019-02-17T15:47:07.366Z,101772.15
2019-02-17T15:50:12.553Z,101774.21
2019-02-17T15:53:16.592Z,101771.53
2019-02-17T15:56:20.653Z,101769.78
2019-02-17T15:59:24.690Z,101764.12
2019-02-17T16:02:28.753Z,101778.27
2019-02-17T16:05:32.788Z,101764.81
2019-02-17T16:08:36.849Z,101769.36
2019-02-17T16:11:40.908Z,101771.04
2019-02-17T16:14:44.950Z,101765.00
2019-02-17T16:17:49.009Z,101758.96
2019-02-17T16:20:53.049Z,101761.56
2019-02-17T16:23:57.117Z,101762.09
2019-02-17T16:27:01.173Z,101758.20
2019-02-17T16:30:10.988Z,101760.45
2019-02-17T16:33:15.044Z,101759.69
2019-02-17T16:36:19.082Z,101757.62
2019-02-17T16:39:23.143Z,101757.16
2019-02-17T16:42:27.205Z,101764.66
2019-02-17T16:45:31.242Z,101761.67
2019-02-17T16:48:35.300Z,101762.59
2019-02-17T16:51:39.367Z,101765.66
2019-02-17T16:54:43.409Z,101767.79
2019-02-17T16:57:47.478Z,101761.48
2019-02-17T17:00:51.505Z,101745.05
2019-02-17T17:03:55.565Z,101739.09
2019-02-17T17:07:01.045Z,101740.31
2019-02-17T17:10:05.614Z,101744.25
2019-02-17T17:13:09.677Z,101745.20
2019-02-17T17:16:13.716Z,101747.19
2019-02-17T17:19:17.781Z,101751.84
2019-02-17T17:22:21.848Z,101768.06
2019-02-17T17:25:25.891Z,101764.50
2019-02-17T17:28:29.957Z,101765.42
2019-02-17T17:31:33.996Z,101763.28
2019-02-17T17:34:38.062Z,101771.00
2019-02-17T17:37:42.122Z,101767.10
2019-02-17T17:40:46.163Z,101763.59
2019-02-17T17:43:50.227Z,101766.00
2019-02-17T17:46:54.285Z,101768.52
2019-02-17T17:49:58.335Z,101764.08
2019-02-17T17:53:02.394Z,101767.30
2019-02-17T17:56:06.437Z,101760.80
2019-02-17T17:59:10.497Z,101770.27
2019-02-17T18:02:14.557Z,101766.00
2019-02-17T18:05:18.594Z,101755.78
2019-02-17T18:08:22.657Z,101762.82
2019-02-17T18:11:26.735Z,101760.22
2019-02-17T18:14:30.797Z,101759.45
2019-02-17T18:17:34.854Z,101764.73
2019-02-17T18:20:38.890Z,101769.20
2019-02-17T18:23:42.954Z,101768.36
2019-02-17T18:26:46.993Z,101764.62
2019-02-17T18:29:51.054Z,101767.67
2019-02-17T18:32:55.121Z,101768.94
2019-02-17T18:35:59.163Z,101764.73
2019-02-17T18:39:04.091Z,101762.02
2019-02-17T18:42:08.131Z,101763.16
2019-02-17T18:45:16.474Z,101759.72
2019-02-17T18:48:20.530Z,101762.41
2019-02-17T18:51:24.587Z,101760.19
2019-02-17T18:54:28.649Z,101764.08
2019-02-17T18:57:32.713Z,101767.06
2019-02-17T19:00:36.749Z,101768.17
2019-02-17T19:03:40.815Z,101768.94
2019-02-17T19:06:44.854Z,101764.96
2019-02-17T19:09:48.916Z,101763.89
2019-02-17T19:12:52.982Z,101758.70
2019-02-17T19:15:57.015Z,101754.45
2019-02-17T19:19:01.076Z,101747.46
2019-02-17T19:22:05.148Z,101746.27
2019-02-17T19:25:09.877Z,101737.17
2019-02-17T19:28:13.940Z,101739.09
2019-02-17T19:31:18.009Z,101738.63
2019-02-17T19:34:22.065Z,101737.87
2019-02-17T19:37:26.109Z,101731.45
2019-02-17T19:40:30.164Z,101738.86
2019-02-17T19:43:34.225Z,101735.91
2019-02-17T19:46:38.264Z,101732.63
2019-02-17T19:49:42.323Z,101738.52
2019-02-17T19:52:46.404Z,101743.02
2019-02-17T19:55:50.422Z,101741.34
2019-02-17T19:58:54.487Z,101740.05
2019-02-17T20:01:58.540Z,101736.30
2019-02-17T20:05:04.233Z,101736.76
2019-02-17T20:08:08.319Z,101722.96
2019-02-17T20:11:12.335Z,101724.41
2019-02-17T20:14:16.393Z,101710.97
2019-02-17T20:17:20.434Z,101717.53
2019-02-17T20:20:24.499Z,101711.42
2019-02-17T20:23:28.672Z,101712.88
2019-02-17T20:26:32.911Z,101714.17
2019-02-17T20:29:36.966Z,101712.11
2019-02-17T20:32:41.009Z,101706.56
2019-02-17T20:35:45.067Z,101710.81
2019-02-17T20:38:49.398Z,101700.53
2019-02-17T20:41:53.435Z,101703.20
2019-02-17T20:44:57.516Z,101708.02
2019-02-17T20:48:01.553Z,101704.05
2019-02-17T20:51:05.614Z,101699.13
2019-02-17T20:54:09.698Z,101694.50
2019-02-17T20:57:13.737Z,101695.41
2019-02-17T21:00:22.560Z,101697.55
2019-02-17T21:03:26.469Z,101702.67
2019-02-17T21:06:30.539Z,101706.84
2019-02-17T21:09:34.597Z,101705.47
2019-02-17T21:12:38.633Z,101702.71
2019-02-17T21:15:42.688Z,101707.53
2019-02-17T21:18:46.736Z,101713.45
2019-02-17T21:21:50.800Z,101713.68
2019-02-17T21:24:54.858Z,101722.58
2019-02-17T21:27:58.900Z,101722.58
2019-02-17T21:31:02.964Z,101720.14
2019-02-17T21:34:07.054Z,101714.63
2019-02-17T21:37:11.088Z,101712.95
2019-02-17T21:40:15.150Z,101711.20
2019-02-17T21:43:19.187Z,101710.92
2019-02-17T21:46:23.251Z,101708.48
2019-02-17T21:49:27.310Z,101708.63
2019-02-17T21:52:31.346Z,101711.16
2019-02-17T21:55:35.408Z,101712.33
2019-02-17T21:58:39.450Z,101708.81
2019-02-17T22:01:43.505Z,101716.15
2019-02-17T22:04:47.579Z,101715.00
2019-02-17T22:07:51.614Z,101710.19
2019-02-17T22:10:55.672Z,101708.13
2019-02-17T22:13:59.714Z,101703.84
2019-02-17T22:17:03.774Z,101699.76
2019-02-17T22:20:09.484Z,101699.76
2019-02-17T22:23:13.517Z,101698.08
2019-02-17T22:26:17.572Z,101698.08
2019-02-17T22:29:21.608Z,101696.78
2019-02-17T22:32:25.670Z,101702.05
2019-02-17T22:35:29.729Z,101692.58
2019-02-17T22:38:33.777Z,101696.02
2019-02-17T22:41:37.836Z,101694.41
2019-02-17T22:44:41.929Z,101688.60
2019-02-17T22:47:45.965Z,101681.27
2019-02-17T22:50:50.029Z,101691.42
2019-02-17T22:53:54.065Z,101686.61
2019-02-17T22:56:58.128Z,101692.64
2019-02-17T23:00:02.190Z,101693.56
2019-02-17T23:03:06.224Z,101693.64
2019-02-17T23:06:10.740Z,101691.95
2019-02-17T23:09:14.952Z,101686.95
2019-02-17T23:12:19.006Z,101692.41
2019-02-17T23:15:23.073Z,101685.11
2019-02-17T23:18:27.107Z,101688.39
2019-02-17T23:21:31.164Z,101680.75
2019-02-17T23:24:35.202Z,101686.52
2019-02-17T23:27:39.257Z,101680.55
2019-02-17T23:30:43.317Z,101683.98
2019-02-17T23:33:47.352Z,101681.47
2019-02-17T23:36:51.413Z,101684.98
2019-02-17T23:39:55.453Z,101687.19
2019-02-17T23:42:59.525Z,101682.07
2019-02-17T23:46:03.577Z,101680.95
2019-02-17T23:49:07.612Z,101678.17
2019-02-17T23:52:11.671Z,101678.81
2019-02-17T23:55:15.710Z,101680.19
2019-02-17T23:58:19.762Z,101681.48
